| time (UTC) | temp F | wind direction | speed MPH | gust MPH | rain 1hr in | rain 24hr in | rain mn in | humidity % | barometer mb |
| 20260505153052 | 62 | 0 | 0.0 | 2.0 | 0.00 | 0.00 | 0.00 | 30 | 1011.2 |
| 20260505152536 | 62 | 44 | 0.0 | 4.0 | 0.00 | 0.00 | 0.00 | 31 | 1011.3 |
| 20260505152036 | 62 | 0 | 0.0 | 4.0 | 0.00 | 0.00 | 0.00 | 30 | 1011.4 |
| 20260505151544 | 63 | 42 | 1.0 | 4.0 | 0.00 | 0.00 | 0.00 | 30 | 1011.3 |
| 20260505151037 | 63 | 352 | 1.0 | 4.0 | 0.00 | 0.00 | 0.00 | 30 | 1011.2 |
| 20260505150536 | 63 | 0 | 0.0 | 2.0 | 0.00 | 0.00 | 0.00 | 30 | 1011.3 |
| 20260505140536 | 60 | 0 | 0.0 | 3.0 | 0.00 | 0.00 | 0.00 | 36 | 1011.6 |
| 20260505125036 | 53 | 0 | 0.0 | 1.0 | 0.00 | 0.00 | 0.00 | 40 | 1011.6 |
| 20260505124600 | 52 | 0 | 0.0 | 1.0 | 0.00 | 0.00 | 0.00 | 41 | 1011.6 |
| 20260505124036 | 51 | 0 | 0.0 | 1.0 | 0.00 | 0.00 | 0.00 | 42 | 1011.6 |
| 20260505123538 | 51 | 0 | 0.0 | 1.0 | 0.00 | 0.00 | 0.00 | 42 | 1011.6 |
| 20260505123059 | 51 | 0 | 0.0 | 1.0 | 0.00 | 0.00 | 0.00 | 43 | 1011.6 |
| 20260505122536 | 52 | 0 | 0.0 | 1.0 | 0.00 | 0.00 | 0.00 | 42 | 1011.4 |
| 20260505122036 | 52 | 0 | 0.0 | 3.0 | 0.00 | 0.00 | 0.00 | 40 | 1011.2 |
| 20260505121553 | 52 | 0 | 0.0 | 3.0 | 0.00 | 0.00 | 0.00 | 40 | 1011.2 |
| 20260505121036 | 52 | 0 | 0.0 | 7.0 | 0.00 | 0.00 | 0.00 | 40 | 1011.1 |
| 20260505120536 | 52 | 0 | 0.0 | 7.0 | 0.00 | 0.00 | 0.00 | 40 | 1011.1 |
| 20260505120109 | 52 | 105 | 1.0 | 7.0 | 0.00 | 0.00 | 0.00 | 40 | 1011.0 |
| 20260505115535 | 52 | 0 | 0.0 | 2.0 | 0.00 | 0.00 | 0.00 | 40 | 1011.0 |
| 20260505115036 | 52 | 0 | 0.0 | 2.0 | 0.00 | 0.00 | 0.00 | 41 | 1011.0 |
| 20260505114549 | 52 | 0 | 0.0 | 1.0 | 0.00 | 0.00 | 0.00 | 42 | 1011.2 |
| 20260505114036 | 52 | 0 | 0.0 | 1.0 | 0.00 | 0.00 | 0.00 | 41 | 1011.3 |
| 20260505113536 | 52 | 0 | 0.0 | 1.0 | 0.00 | 0.00 | 0.00 | 42 | 1011.4 |
| 20260505113047 | 52 | 0 | 0.0 | 2.0 | 0.00 | 0.00 | 0.00 | 41 | 1011.4 |
| 20260505112536 | 52 | 0 | 0.0 | 2.0 | 0.00 | 0.00 | 0.00 | 41 | 1011.4 |
| 20260505112036 | 52 | 0 | 0.0 | 1.0 | 0.00 | 0.00 | 0.00 | 39 | 1011.2 |
| 20260505111553 | 53 | 0 | 0.0 | 1.0 | 0.00 | 0.00 | 0.00 | 39 | 1011.2 |
| 20260505111036 | 53 | 0 | 0.0 | 0.0 | 0.00 | 0.00 | 0.00 | 39 | 1011.2 |
| 20260505110535 | 54 | 0 | 0.0 | 0.0 | 0.00 | 0.00 | 0.00 | 38 | 1011.1 |
| 20260505102036 | 57 | 0 | 0.0 | 2.0 | 0.00 | 0.00 | 0.00 | 33 | 1010.9 |
| 20260505101552 | 58 | 0 | 0.0 | 6.0 | 0.00 | 0.00 | 0.00 | 33 | 1010.7 |
| 20260505101036 | 58 | 247 | 0.0 | 6.0 | 0.00 | 0.00 | 0.00 | 33 | 1010.6 |
| 20260505100536 | 58 | 283 | 0.0 | 4.0 | 0.00 | 0.00 | 0.00 | 32 | 1010.8 |
| 20260505100053 | 58 | 0 | 1.0 | 4.0 | 0.00 | 0.00 | 0.00 | 32 | 1010.7 |
| 20260505095536 | 58 | 258 | 0.0 | 6.0 | 0.00 | 0.00 | 0.00 | 32 | 1010.7 |
| 20260505095035 | 59 | 259 | 0.0 | 9.0 | 0.00 | 0.00 | 0.00 | 31 | 1010.7 |
| 20260505094553 | 59 | 263 | 2.0 | 9.0 | 0.00 | 0.00 | 0.00 | 31 | 1010.8 |
| 20260505094039 | 59 | 0 | 0.0 | 5.0 | 0.00 | 0.00 | 0.00 | 30 | 1010.7 |
| 20260505093537 | 59 | 267 | 0.0 | 8.0 | 0.00 | 0.00 | 0.00 | 29 | 1010.6 |
| 20260505093054 | 59 | 297 | 2.0 | 8.0 | 0.00 | 0.00 | 0.00 | 29 | 1010.8 |
| 20260505092537 | 59 | 269 | 1.0 | 6.0 | 0.00 | 0.00 | 0.00 | 29 | 1010.7 |
| 20260505092036 | 59 | 271 | 1.0 | 6.0 | 0.00 | 0.00 | 0.00 | 29 | 1010.6 |
| 20260505091548 | 59 | 290 | 1.0 | 8.0 | 0.00 | 0.00 | 0.00 | 29 | 1010.7 |
| 20260505091036 | 59 | 270 | 1.0 | 8.0 | 0.00 | 0.00 | 0.00 | 29 | 1010.7 |
| 20260505090536 | 59 | 0 | 3.0 | 8.0 | 0.00 | 0.00 | 0.00 | 29 | 1010.8 |
| 20260505090051 | 59 | 256 | 2.0 | 7.0 | 0.00 | 0.00 | 0.00 | 30 | 1010.8 |
| 20260505085537 | 60 | 264 | 1.0 | 4.0 | 0.00 | 0.00 | 0.00 | 30 | 1010.9 |
| 20260505085036 | 60 | 309 | 2.0 | 5.0 | 0.00 | 0.00 | 0.00 | 30 | 1011.0 |
| 20260505084545 | 60 | 278 | 1.0 | 6.0 | 0.00 | 0.00 | 0.00 | 30 | 1011.2 |
| 20260505084035 | 60 | 296 | 1.0 | 10.0 | 0.00 | 0.00 | 0.00 | 29 | 1011.2 |
| 20260505083535 | 60 | 292 | 2.0 | 10.0 | 0.00 | 0.00 | 0.00 | 29 | 1011.0 |
| 20260505083054 | 60 | 258 | 1.0 | 10.0 | 0.00 | 0.00 | 0.00 | 29 | 1011.0 |
| 20260505082536 | 60 | 299 | 2.0 | 10.0 | 0.00 | 0.00 | 0.00 | 28 | 1011.1 |
| 20260505082036 | 60 | 271 | 4.0 | 10.0 | 0.00 | 0.00 | 0.00 | 28 | 1011.2 |
| 20260505081551 | 61 | 269 | 3.0 | 8.0 | 0.00 | 0.00 | 0.00 | 28 | 1011.2 |
| 20260505081036 | 61 | 280 | 1.0 | 9.0 | 0.00 | 0.00 | 0.00 | 27 | 1011.4 |
| 20260505080535 | 61 | 334 | 2.0 | 9.0 | 0.00 | 0.00 | 0.00 | 27 | 1011.6 |
| 20260505080054 | 61 | 259 | 1.0 | 9.0 | 0.00 | 0.00 | 0.00 | 27 | 1011.5 |
| 20260505075538 | 61 | 264 | 1.0 | 13.0 | 0.00 | 0.00 | 0.00 | 26 | 1011.4 |
| 20260505075035 | 61 | 275 | 4.0 | 13.0 | 0.00 | 0.00 | 0.00 | 26 | 1011.4 |
| 20260505074556 | 61 | 257 | 2.0 | 11.0 | 0.00 | 0.00 | 0.00 | 27 | 1011.5 |
| 20260505074035 | 61 | 311 | 3.0 | 11.0 | 0.00 | 0.00 | 0.00 | 26 | 1011.5 |
| 20260505073535 | 61 | 275 | 2.0 | 6.0 | 0.00 | 0.00 | 0.00 | 26 | 1011.3 |
| 20260505073102 | 62 | 0 | 1.0 | 6.0 | 0.00 | 0.00 | 0.00 | 26 | 1011.1 |
| 20260505072538 | 62 | 234 | 0.0 | 3.0 | 0.00 | 0.00 | 0.00 | 26 | 1011.0 |
| 20260505072037 | 62 | 240 | 0.0 | 3.0 | 0.00 | 0.00 | 0.00 | 26 | 1011.0 |
| 20260505071553 | 62 | 0 | 0.0 | 4.0 | 0.00 | 0.00 | 0.00 | 25 | 1011.1 |
| 20260505071037 | 62 | 290 | 0.0 | 4.0 | 0.00 | 0.00 | 0.00 | 26 | 1011.0 |
| 20260505070536 | 63 | 0 | 1.0 | 12.0 | 0.00 | 0.00 | 0.00 | 25 | 1011.1 |
| 20260505070049 | 63 | 0 | 3.0 | 13.0 | 0.00 | 0.00 | 0.00 | 25 | 1011.2 |
| 20260505065536 | 63 | 294 | 4.0 | 13.0 | 0.00 | 0.00 | 0.00 | 25 | 1011.1 |
| 20260505065035 | 63 | 240 | 2.0 | 14.0 | 0.00 | 0.00 | 0.00 | 25 | 1011.0 |
| 20260505064547 | 63 | 284 | 4.0 | 14.0 | 0.00 | 0.00 | 0.00 | 25 | 1010.9 |
| 20260505064035 | 63 | 306 | 5.0 | 14.0 | 0.00 | 0.00 | 0.00 | 25 | 1010.8 |
| 20260505063536 | 63 | 281 | 2.0 | 6.0 | 0.00 | 0.00 | 0.00 | 26 | 1010.9 |
| 20260505063049 | 62 | 340 | 2.0 | 6.0 | 0.00 | 0.00 | 0.00 | 26 | 1010.9 |
| 20260505062535 | 61 | 299 | 1.0 | 11.0 | 0.00 | 0.00 | 0.00 | 28 | 1010.8 |
| 20260505062035 | 60 | 0 | 2.0 | 11.0 | 0.00 | 0.00 | 0.00 | 30 | 1010.8 |
| 20260505061552 | 59 | 228 | 0.0 | 3.0 | 0.00 | 0.00 | 0.00 | 31 | 1010.9 |
| 20260505061036 | 59 | 217 | 0.0 | 3.0 | 0.00 | 0.00 | 0.00 | 31 | 1010.8 |
| 20260505060536 | 59 | 0 | 0.0 | 2.0 | 0.00 | 0.00 | 0.00 | 31 | 1010.8 |
| 20260505060054 | 59 | 0 | 0.0 | 3.0 | 0.00 | 0.00 | 0.00 | 30 | 1010.7 |
| 20260505055536 | 59 | 0 | 1.0 | 3.0 | 0.00 | 0.00 | 0.00 | 30 | 1010.7 |
| 20260505055036 | 60 | 0 | 0.0 | 2.0 | 0.00 | 0.00 | 0.00 | 30 | 1010.9 |
| 20260505054608 | 60 | 0 | 0.0 | 2.0 | 0.00 | 0.00 | 0.00 | 30 | 1010.8 |
| 20260505054036 | 60 | 297 | 0.0 | 2.0 | 0.00 | 0.00 | 0.00 | 29 | 1010.6 |
| 20260505053537 | 60 | 0 | 0.0 | 4.0 | 0.00 | 0.00 | 0.00 | 30 | 1010.5 |
| 20260505053103 | 60 | 0 | 0.0 | 4.0 | 0.00 | 0.00 | 0.00 | 30 | 1010.5 |
| 20260505052535 | 60 | 0 | 0.0 | 3.0 | 0.00 | 0.00 | 0.00 | 29 | 1010.3 |
| 20260505052035 | 60 | 197 | 0.0 | 1.0 | 0.00 | 0.00 | 0.00 | 30 | 1010.5 |
| 20260505051550 | 61 | 0 | 0.0 | 2.0 | 0.00 | 0.00 | 0.00 | 29 | 1010.5 |
| 20260505051036 | 61 | 0 | 0.0 | 2.0 | 0.00 | 0.00 | 0.00 | 29 | 1010.4 |
| 20260505050538 | 62 | 0 | 0.0 | 1.0 | 0.00 | 0.00 | 0.00 | 27 | 1010.4 |
| 20260505041556 | 64 | 0 | 0.0 | 1.0 | 0.00 | 0.00 | 0.00 | 25 | 1010.4 |
| 20260505041036 | 64 | 0 | 0.0 | 4.0 | 0.00 | 0.00 | 0.00 | 24 | 1010.5 |
| 20260505040536 | 65 | 0 | 0.0 | 4.0 | 0.00 | 0.00 | 0.00 | 24 | 1010.4 |
| 20260505040056 | 65 | 0 | 0.0 | 4.0 | 0.00 | 0.00 | 0.00 | 24 | 1010.6 |
| 20260505035537 | 65 | 0 | 0.0 | 1.0 | 0.00 | 0.00 | 0.00 | 23 | 1010.6 |
| 20260505035035 | 65 | 0 | 0.0 | 1.0 | 0.00 | 0.00 | 0.00 | 24 | 1010.7 |
| 20260505034549 | 66 | 0 | 0.0 | 2.0 | 0.00 | 0.00 | 0.00 | 23 | 1010.7 |
| 20260505034036 | 66 | 0 | 0.0 | 3.0 | 0.00 | 0.00 | 0.00 | 23 | 1010.7 |
| 20260505033536 | 66 | 0 | 0.0 | 3.0 | 0.00 | 0.00 | 0.00 | 22 | 1010.7 |
| 20260505033050 | 66 | 275 | 0.0 | 7.0 | 0.00 | 0.00 | 0.00 | 22 | 1010.4 |
| 20260505032535 | 66 | 0 | 2.0 | 7.0 | 0.00 | 0.00 | 0.00 | 22 | 1010.3 |
| 20260505032035 | 66 | 0 | 0.0 | 10.0 | 0.00 | 0.00 | 0.00 | 22 | 1010.3 |
| 20260505031605 | 67 | 248 | 0.0 | 10.0 | 0.00 | 0.00 | 0.00 | 21 | 1010.1 |
| 20260505031035 | 67 | 232 | 0.0 | 8.0 | 0.00 | 0.00 | 0.00 | 21 | 1010.0 |
| 20260505030537 | 67 | 277 | 2.0 | 8.0 | 0.00 | 0.00 | 0.00 | 21 | 1010.0 |
| 20260505030052 | 67 | 336 | 2.0 | 7.0 | 0.00 | 0.00 | 0.00 | 21 | 1010.1 |
| 20260505025536 | 67 | 236 | 0.0 | 7.0 | 0.00 | 0.00 | 0.00 | 20 | 1010.0 |
| 20260505025035 | 67 | 281 | 2.0 | 7.0 | 0.00 | 0.00 | 0.00 | 20 | 1010.1 |
| 20260505024554 | 67 | 0 | 0.0 | 5.0 | 0.00 | 0.00 | 0.00 | 19 | 1010.0 |
| 20260505024038 | 67 | 253 | 0.0 | 5.0 | 0.00 | 0.00 | 0.00 | 19 | 1010.0 |
| 20260505023536 | 67 | 291 | 1.0 | 5.0 | 0.00 | 0.00 | 0.00 | 19 | 1010.0 |
| 20260505023056 | 67 | 0 | 1.0 | 6.0 | 0.00 | 0.00 | 0.00 | 19 | 1009.8 |
| 20260505022536 | 67 | 262 | 1.0 | 7.0 | 0.00 | 0.00 | 0.00 | 18 | 1009.8 |
| 20260505022037 | 67 | 286 | 2.0 | 7.0 | 0.00 | 0.00 | 0.00 | 18 | 1009.8 |
| 20260505021550 | 68 | 257 | 0.0 | 7.0 | 0.00 | 0.00 | 0.00 | 18 | 1009.8 |
| 20260505021036 | 68 | 315 | 0.0 | 3.0 | 0.00 | 0.00 | 0.00 | 17 | 1009.8 |
| 20260505020537 | 68 | 0 | 0.0 | 5.0 | 0.00 | 0.00 | 0.00 | 17 | 1009.8 |
| 20260505020045 | 68 | 273 | 0.0 | 5.0 | 0.00 | 0.00 | 0.00 | 17 | 1009.8 |
| 20260505015537 | 69 | 348 | 2.0 | 8.0 | 0.00 | 0.00 | 0.00 | 16 | 1009.8 |
| 20260505015037 | 69 | 318 | 1.0 | 9.0 | 0.00 | 0.00 | 0.00 | 16 | 1009.6 |
| 20260505014546 | 69 | 0 | 0.0 | 9.0 | 0.00 | 0.00 | 0.00 | 16 | 1009.5 |
| 20260505014036 | 69 | 0 | 3.0 | 9.0 | 0.00 | 0.00 | 0.00 | 16 | 1009.4 |
| 20260505013536 | 69 | 257 | 2.0 | 8.0 | 0.00 | 0.00 | 0.00 | 15 | 1009.4 |
| 20260505013106 | 69 | 315 | 2.0 | 8.0 | 0.00 | 0.00 | 0.00 | 15 | 1009.3 |
| 20260505012535 | 70 | 298 | 2.0 | 12.0 | 0.00 | 0.00 | 0.00 | 15 | 1009.3 |
| 20260505012036 | 70 | 360 | 3.0 | 12.0 | 0.00 | 0.00 | 0.00 | 15 | 1009.2 |
| 20260505011551 | 70 | 293 | 1.0 | 10.0 | 0.00 | 0.00 | 0.00 | 15 | 1009.3 |
| 20260505011037 | 70 | 318 | 2.0 | 10.0 | 0.00 | 0.00 | 0.00 | 15 | 1009.2 |
| 20260505010537 | 70 | 322 | 3.0 | 10.0 | 0.00 | 0.00 | 0.00 | 14 | 1009.2 |
| 20260505010049 | 71 | 329 | 1.0 | 6.0 | 0.00 | 0.00 | 0.00 | 14 | 1009.2 |
| 20260505005536 | 71 | 333 | 1.0 | 12.0 | 0.00 | 0.00 | 0.00 | 14 | 1009.3 |
| 20260505005037 | 71 | 295 | 2.0 | 12.0 | 0.00 | 0.00 | 0.00 | 14 | 1009.3 |
| 20260505004552 | 71 | 294 | 3.0 | 8.0 | 0.00 | 0.00 | 0.00 | 14 | 1009.3 |
| 20260505004037 | 71 | 263 | 1.0 | 8.0 | 0.00 | 0.00 | 0.00 | 14 | 1009.4 |
| 20260505003540 | 71 | 336 | 2.0 | 8.0 | 0.00 | 0.00 | 0.00 | 14 | 1009.3 |
| 20260505003043 | 71 | 277 | 1.0 | 5.0 | 0.00 | 0.00 | 0.00 | 14 | 1009.5 |
| 20260505002538 | 71 | 325 | 1.0 | 7.0 | 0.00 | 0.00 | 0.00 | 14 | 1009.5 |
| 20260505002036 | 71 | 346 | 2.0 | 7.0 | 0.00 | 0.00 | 0.00 | 14 | 1009.6 |
| 20260505001554 | 71 | 255 | 1.0 | 7.0 | 0.00 | 0.00 | 0.00 | 15 | 1009.6 |
| 20260505001035 | 71 | 352 | 2.0 | 8.0 | 0.00 | 0.00 | 0.00 | 15 | 1009.6 |
| 20260505000536 | 71 | 0 | 1.0 | 10.0 | 0.00 | 0.00 | 0.00 | 15 | 1009.6 |
| 20260505000107 | 71 | 281 | 5.0 | 10.0 | 0.00 | 0.00 | 0.00 | 16 | 1009.6 |
| 20260504235536 | 71 | 226 | 4.0 | 8.0 | 0.00 | 0.00 | 0.00 | 16 | 1009.6 |
| 20260504235037 | 71 | 225 | 3.0 | 8.0 | 0.00 | 0.00 | 0.00 | 16 | 1009.6 |
| 20260504234552 | 71 | 269 | 2.0 | 6.0 | 0.00 | 0.00 | 0.00 | 16 | 1009.7 |
| 20260504234035 | 71 | 325 | 1.0 | 12.0 | 0.00 | 0.00 | 0.00 | 15 | 1009.7 |
| 20260504233536 | 71 | 9 | 3.0 | 12.0 | 0.00 | 0.00 | 0.00 | 15 | 1009.7 |
| 20260504233055 | 71 | 336 | 4.0 | 12.0 | 0.00 | 0.00 | 0.00 | 15 | 1009.8 |
| 20260504232536 | 71 | 338 | 5.0 | 9.0 | 0.00 | 0.00 | 0.00 | 14 | 1009.8 |
| 20260504232035 | 71 | 322 | 2.0 | 12.0 | 0.00 | 0.00 | 0.00 | 15 | 1009.8 |
| 20260504231554 | 71 | 325 | 4.0 | 12.0 | 0.00 | 0.00 | 0.00 | 15 | 1009.8 |
| 20260504231036 | 72 | 316 | 6.0 | 12.0 | 0.00 | 0.00 | 0.00 | 14 | 1009.9 |
| 20260504230539 | 72 | 352 | 4.0 | 11.0 | 0.00 | 0.00 | 0.00 | 14 | 1010.0 |
| 20260504230105 | 72 | 308 | 5.0 | 11.0 | 0.00 | 0.00 | 0.00 | 14 | 1010.1 |
| 20260504225536 | 72 | 275 | 5.0 | 10.0 | 0.00 | 0.00 | 0.00 | 14 | 1010.1 |
| 20260504225037 | 72 | 268 | 5.0 | 11.0 | 0.00 | 0.00 | 0.00 | 14 | 1010.1 |
| 20260504224552 | 72 | 282 | 2.0 | 13.0 | 0.00 | 0.00 | 0.00 | 14 | 1010.2 |
| 20260504224035 | 72 | 319 | 5.0 | 13.0 | 0.00 | 0.00 | 0.00 | 14 | 1010.3 |
| 20260504223535 | 72 | 287 | 6.0 | 13.0 | 0.00 | 0.00 | 0.00 | 14 | 1010.4 |
| 20260504223049 | 72 | 322 | 6.0 | 15.0 | 0.00 | 0.00 | 0.00 | 13 | 1010.4 |
| 20260504222536 | 72 | 309 | 7.0 | 15.0 | 0.00 | 0.00 | 0.00 | 14 | 1010.5 |
| 20260504222036 | 72 | 294 | 3.0 | 12.0 | 0.00 | 0.00 | 0.00 | 13 | 1010.3 |
| 20260504221559 | 72 | 288 | 4.0 | 12.0 | 0.00 | 0.00 | 0.00 | 13 | 1010.5 |
| 20260504221037 | 72 | 273 | 4.0 | 11.0 | 0.00 | 0.00 | 0.00 | 13 | 1010.4 |
| 20260504220536 | 72 | 289 | 4.0 | 13.0 | 0.00 | 0.00 | 0.00 | 12 | 1010.5 |
| 20260504220058 | 72 | 269 | 6.0 | 18.0 | 0.00 | 0.00 | 0.00 | 12 | 1010.6 |
| 20260504215536 | 72 | 281 | 7.0 | 18.0 | 0.00 | 0.00 | 0.00 | 12 | 1010.7 |
| 20260504215035 | 73 | 5 | 6.0 | 20.0 | 0.00 | 0.00 | 0.00 | 12 | 1010.8 |
| 20260504214548 | 73 | 266 | 9.0 | 21.0 | 0.00 | 0.00 | 0.00 | 10 | 1010.9 |
| 20260504214036 | 73 | 298 | 6.0 | 21.0 | 0.00 | 0.00 | 0.00 | 10 | 1010.9 |
| 20260504213535 | 73 | 302 | 5.0 | 21.0 | 0.00 | 0.00 | 0.00 | 10 | 1011.0 |
| 20260504213049 | 73 | 305 | 8.0 | 21.0 | 0.00 | 0.00 | 0.00 | 11 | 1010.9 |
| 20260504212539 | 73 | 309 | 6.0 | 17.0 | 0.00 | 0.00 | 0.00 | 10 | 1010.9 |
| 20260504212036 | 73 | 327 | 9.0 | 19.0 | 0.00 | 0.00 | 0.00 | 10 | 1010.9 |
| 20260504211550 | 73 | 284 | 7.0 | 19.0 | 0.00 | 0.00 | 0.00 | 9 | 1011.0 |
| 20260504211040 | 73 | 243 | 7.0 | 18.0 | 0.00 | 0.00 | 0.00 | 9 | 1011.0 |
| 20260504210541 | 74 | 263 | 12.0 | 18.0 | 0.00 | 0.00 | 0.00 | 8 | 1011.1 |
| 20260504210054 | 74 | 300 | 6.0 | 17.0 | 0.00 | 0.00 | 0.00 | 9 | 1011.1 |
| 20260504205540 | 74 | 290 | 8.0 | 17.0 | 0.00 | 0.00 | 0.00 | 9 | 1011.2 |
| 20260504205038 | 73 | 306 | 7.0 | 18.0 | 0.00 | 0.00 | 0.00 | 10 | 1011.1 |
| 20260504204555 | 73 | 286 | 9.0 | 21.0 | 0.00 | 0.00 | 0.00 | 10 | 1011.1 |
| 20260504204041 | 73 | 266 | 10.0 | 21.0 | 0.00 | 0.00 | 0.00 | 11 | 1011.2 |
| 20260504203539 | 74 | 266 | 8.0 | 18.0 | 0.00 | 0.00 | 0.00 | 11 | 1011.3 |
| 20260504203103 | 73 | 253 | 9.0 | 17.0 | 0.00 | 0.00 | 0.00 | 12 | 1011.3 |
| 20260504202539 | 73 | 271 | 9.0 | 24.0 | 0.00 | 0.00 | 0.00 | 11 | 1011.4 |
| 20260504202039 | 74 | 254 | 12.0 | 24.0 | 0.00 | 0.00 | 0.00 | 11 | 1011.4 |
| 20260504201554 | 74 | 233 | 10.0 | 17.0 | 0.00 | 0.00 | 0.00 | 11 | 1011.1 |
| 20260504201038 | 74 | 300 | 9.0 | 17.0 | 0.00 | 0.00 | 0.00 | 11 | 1011.2 |
| 20260504200538 | 75 | 281 | 9.0 | 21.0 | 0.00 | 0.00 | 0.00 | 11 | 1011.3 |
| 20260504200053 | 75 | 241 | 8.0 | 21.0 | 0.00 | 0.00 | 0.00 | 13 | 1011.1 |
| 20260504195539 | 74 | 238 | 8.0 | 21.0 | 0.00 | 0.00 | 0.00 | 14 | 1011.1 |
| 20260504195038 | 74 | 257 | 8.0 | 21.0 | 0.00 | 0.00 | 0.00 | 14 | 1011.2 |
| 20260504194552 | 74 | 259 | 13.0 | 23.0 | 0.00 | 0.00 | 0.00 | 12 | 1011.3 |
| 20260504194039 | 73 | 311 | 12.0 | 23.0 | 0.00 | 0.00 | 0.00 | 13 | 1011.4 |
| 20260504193539 | 73 | 221 | 10.0 | 23.0 | 0.00 | 0.00 | 0.00 | 14 | 1011.4 |
| 20260504193049 | 73 | 225 | 13.0 | 21.0 | 0.00 | 0.00 | 0.00 | 13 | 1011.4 |
| 20260504192538 | 73 | 188 | 8.0 | 20.0 | 0.00 | 0.00 | 0.00 | 14 | 1011.4 |
| 20260504192036 | 73 | 179 | 10.0 | 18.0 | 0.00 | 0.00 | 0.00 | 14 | 1011.6 |
| 20260504191600 | 73 | 162 | 10.0 | 20.0 | 0.00 | 0.00 | 0.00 | 14 | 1011.5 |
| 20260504191040 | 73 | 257 | 9.0 | 22.0 | 0.00 | 0.00 | 0.00 | 15 | 1011.6 |
| 20260504190539 | 72 | 251 | 11.0 | 22.0 | 0.00 | 0.00 | 0.00 | 14 | 1011.7 |
| 20260504190051 | 73 | 238 | 10.0 | 22.0 | 0.00 | 0.00 | 0.00 | 15 | 1011.6 |
| 20260504185535 | 73 | 264 | 10.0 | 17.0 | 0.00 | 0.00 | 0.00 | 14 | 1011.8 |
| 20260504185035 | 73 | 241 | 4.0 | 17.0 | 0.00 | 0.00 | 0.00 | 15 | 1012.0 |
| 20260504184550 | 73 | 223 | 7.0 | 18.0 | 0.00 | 0.00 | 0.00 | 15 | 1012.0 |
| 20260504184042 | 73 | 302 | 7.0 | 18.0 | 0.00 | 0.00 | 0.00 | 14 | 1011.9 |
| 20260504183537 | 72 | 254 | 6.0 | 18.0 | 0.00 | 0.00 | 0.00 | 14 | 1011.8 |
| 20260504183047 | 72 | 216 | 5.0 | 11.0 | 0.00 | 0.00 | 0.00 | 16 | 1012.1 |
| 20260504182539 | 72 | 222 | 6.0 | 15.0 | 0.00 | 0.00 | 0.00 | 17 | 1012.3 |
| 20260504182039 | 72 | 233 | 6.0 | 17.0 | 0.00 | 0.00 | 0.00 | 18 | 1012.3 |
| 20260504181555 | 71 | 233 | 8.0 | 17.0 | 0.00 | 0.00 | 0.00 | 17 | 1012.4 |
| 20260504181039 | 71 | 269 | 9.0 | 18.0 | 0.00 | 0.00 | 0.00 | 17 | 1012.8 |
| 20260504180536 | 71 | 246 | 9.0 | 19.0 | 0.00 | 0.00 | 0.00 | 15 | 1012.7 |
| 20260504180050 | 72 | 215 | 10.0 | 19.0 | 0.00 | 0.00 | 0.00 | 14 | 1012.8 |
| 20260504175535 | 71 | 174 | 9.0 | 18.0 | 0.00 | 0.00 | 0.00 | 16 | 1012.9 |
| 20260504175036 | 72 | 237 | 9.0 | 17.0 | 0.00 | 0.00 | 0.00 | 16 | 1012.9 |
| 20260504174554 | 72 | 234 | 8.0 | 17.0 | 0.00 | 0.00 | 0.00 | 18 | 1013.1 |
| 20260504174037 | 71 | 271 | 9.0 | 17.0 | 0.00 | 0.00 | 0.00 | 17 | 1013.0 |
| 20260504173536 | 71 | 217 | 7.0 | 13.0 | 0.00 | 0.00 | 0.00 | 20 | 1013.0 |
| 20260504173053 | 71 | 201 | 4.0 | 11.0 | 0.00 | 0.00 | 0.00 | 19 | 1012.9 |
| 20260504172535 | 70 | 244 | 4.0 | 11.0 | 0.00 | 0.00 | 0.00 | 18 | 1013.1 |
| 20260504172036 | 69 | 171 | 3.0 | 8.0 | 0.00 | 0.00 | 0.00 | 24 | 1013.3 |
| 20260504171551 | 69 | 295 | 1.0 | 8.0 | 0.00 | 0.00 | 0.00 | 25 | 1013.2 |
| 20260504171036 | 68 | 324 | 3.0 | 11.0 | 0.00 | 0.00 | 0.00 | 25 | 1013.4 |
| 20260504170536 | 68 | 340 | 4.0 | 11.0 | 0.00 | 0.00 | 0.00 | 25 | 1013.4 |